Time;durP1;ratioP1;P1;durP2;ratioP2;P2;SDS_P1;SDS_P2;PMS_P1;PMS_P2;Temp;Humidity;BMP_temperature;BMP_pressure;BME280_temperature;BME280_humidity;BME280_pressure;Samples;Min_cycle;Max_cycle;Signal;HPM_P1;HPM_P2
2023/03/05 00:02:03;;;;;;;41.65;22.05;;;;;;;4.59;100.00;99880.50;4978476;28;20057;-71
2023/03/05 00:04:28;;;;;;;41.75;20.40;;;;;;;5.16;100.00;99993.13;4986799;28;20050;-73
2023/03/05 00:06:54;;;;;;;37.58;19.02;;;;;;;4.31;100.00;99848.91;4980716;28;20038;-72
2023/03/05 00:09:20;;;;;;;36.25;18.27;;;;;;;4.40;100.00;99877.63;4982864;28;20042;-71
2023/03/05 00:11:46;;;;;;;35.83;19.80;;;;;;;4.50;100.00;99876.03;4981615;28;20042;-71
2023/03/05 00:14:12;;;;;;;36.65;18.55;;;;;;;4.80;100.00;99973.50;4978691;28;20111;-72
2023/03/05 00:16:38;;;;;;;35.15;18.20;;;;;;;4.01;100.00;99842.34;4981293;28;20159;-71
2023/03/05 00:19:04;;;;;;;38.35;18.58;;;;;;;4.79;100.00;99950.97;4986263;28;20064;-71
2023/03/05 00:21:38;;;;;;;43.95;20.33;;;;;;;4.14;100.00;99843.41;4982519;28;20033;-71
2023/03/05 00:24:07;;;;;;;33.33;18.33;;;;;;;3.84;100.00;99827.31;4981829;28;20669;-71
2023/03/05 00:26:37;;;;;;;30.90;17.05;;;;;;;3.84;100.00;99830.81;4983203;28;20054;-71
2023/03/05 00:29:04;;;;;;;32.80;19.25;;;;;;;4.07;100.00;99859.72;4983323;28;20093;-72
2023/03/05 00:31:31;;;;;;;50.25;18.73;;;;;;;3.83;100.00;99831.63;4981612;28;20057;-74
2023/03/05 00:34:08;;;;;;;34.50;19.23;;;;;;;3.86;100.00;99849.84;4994185;28;20077;-73
2023/03/05 00:36:38;;;;;;;51.33;22.92;;;;;;;3.87;100.00;99851.59;4978591;28;20034;-73
2023/03/05 00:39:03;;;;;;;57.92;21.20;;;;;;;4.62;100.00;99959.38;4991000;28;20050;-75
2023/03/05 00:41:29;;;;;;;41.13;20.88;;;;;;;4.75;100.00;99951.75;4980729;28;20046;-73
2023/03/05 00:43:54;;;;;;;36.08;20.38;;;;;;;3.78;100.00;99805.59;4982707;28;20054;-74
2023/03/05 00:46:20;;;;;;;38.63;19.48;;;;;;;3.86;100.00;99843.78;4979258;28;20050;-72
2023/03/05 00:48:46;;;;;;;40.38;20.48;;;;;;;4.26;100.00;99891.19;4975865;28;20489;-72
2023/03/05 00:51:11;;;;;;;33.17;17.98;;;;;;;4.52;100.00;99949.69;4979251;28;20030;-70
2023/03/05 00:53:37;;;;;;;47.15;23.17;;;;;;;4.66;100.00;99942.13;4982449;28;20085;-71
2023/03/05 00:56:03;;;;;;;67.60;20.30;;;;;;;3.64;100.00;99809.66;4978301;28;20046;-71
2023/03/05 00:58:28;;;;;;;36.67;21.15;;;;;;;4.44;100.00;99925.28;4980240;28;20057;-71
2023/03/05 01:00:57;;;;;;;44.38;21.75;;;;;;;3.77;100.00;99808.19;4984146;28;20109;-71
2023/03/05 01:03:23;;;;;;;35.75;21.38;;;;;;;4.57;100.00;99940.22;4979549;28;20046;-71
2023/03/05 01:05:48;;;;;;;38.83;20.45;;;;;;;3.83;100.00;99804.81;4987742;28;20042;-72
2023/03/05 01:08:15;;;;;;;40.45;23.02;;;;;;;4.20;100.00;99892.84;4982657;28;20058;-70
2023/03/05 01:10:41;;;;;;;40.20;19.17;;;;;;;4.31;100.00;99918.13;4983318;28;20646;-71
2023/03/05 01:13:06;;;;;;;43.60;19.45;;;;;;;4.24;100.00;99919.75;4985030;28;20129;-70
2023/03/05 01:15:32;;;;;;;52.35;22.55;;;;;;;4.31;100.00;99906.03;4980995;28;20648;-71
2023/03/05 01:17:58;;;;;;;33.55;21.85;;;;;;;3.75;100.00;99818.53;4979001;28;20490;-71
2023/03/05 01:20:23;;;;;;;38.88;21.50;;;;;;;4.52;100.00;99939.28;4977802;28;20414;-70
2023/03/05 01:22:49;;;;;;;36.70;21.08;;;;;;;4.32;100.00;99920.75;4986911;28;20050;-73
2023/03/05 01:25:15;;;;;;;41.03;20.70;;;;;;;3.62;100.00;99803.56;4985083;28;20042;-73
2023/03/05 01:27:41;;;;;;;34.03;19.55;;;;;;;4.19;100.00;99911.88;4983119;28;20060;-73
2023/03/05 01:30:08;;;;;;;40.83;19.98;;;;;;;3.40;100.00;99791.06;4985499;28;20034;-70
2023/03/05 01:32:34;;;;;;;52.47;22.27;;;;;;;4.34;100.00;99937.22;4982202;28;20042;-72
2023/03/05 01:35:00;;;;;;;45.83;20.17;;;;;;;4.15;100.00;99949.03;4984943;28;20047;-73
2023/03/05 01:37:26;;;;;;;43.10;22.70;;;;;;;3.91;100.00;99909.63;4984138;28;20058;-71
2023/03/05 01:39:51;;;;;;;43.50;21.38;;;;;;;3.32;100.00;99789.19;4984384;28;20089;-73
2023/03/05 01:42:18;;;;;;;41.13;20.17;;;;;;;4.18;100.00;99919.63;4985543;28;20026;-74
2023/03/05 01:45:09;;;;;;;35.25;20.75;;;;;;;3.22;100.00;99763.94;4979007;28;20050;-75
2023/03/05 01:47:35;;;;;;;43.05;22.30;;;;;;;4.12;100.00;99938.59;4987164;28;20038;-73
2023/03/05 01:50:00;;;;;;;47.60;24.42;;;;;;;3.23;100.00;99763.13;4983112;28;20058;-72
2023/03/05 01:52:28;;;;;;;47.10;23.55;;;;;;;4.05;100.00;99941.91;4984713;28;20052;-72
2023/03/05 01:54:58;;;;;;;37.05;20.30;;;;;;;4.21;100.00;99948.25;4985055;28;20072;-72
2023/03/05 01:57:38;;;;;;;49.40;24.02;;;;;;;4.19;100.00;99932.66;4980345;28;20080;-72
2023/03/05 02:00:10;;;;;;;45.90;20.73;;;;;;;3.49;100.00;99805.09;4975125;28;20051;-71
2023/03/05 02:02:36;;;;;;;41.30;24.13;;;;;;;3.38;100.00;99822.16;4989021;28;20565;-72
2023/03/05 02:05:07;;;;;;;42.00;24.50;;;;;;;3.94;100.00;99912.28;4981700;28;20047;-75
2023/03/05 02:07:36;;;;;;;52.90;25.67;;;;;;;4.11;100.00;99933.34;4981322;28;20061;-72
2023/03/05 02:10:13;;;;;;;41.00;22.58;;;;;;;4.18;100.00;99933.50;4988369;28;20046;-73
2023/03/05 02:12:38;;;;;;;50.00;22.85;;;;;;;4.09;100.00;99932.44;4988078;28;20037;-74
2023/03/05 02:15:04;;;;;;;40.92;21.67;;;;;;;3.81;100.00;99930.19;4984056;28;20088;-71
2023/03/05 02:17:30;;;;;;;40.30;19.05;;;;;;;4.05;100.00;99928.94;4984016;28;20142;-73
2023/03/05 02:20:03;;;;;;;54.20;25.73;;;;;;;3.06;100.00;99798.19;4983288;28;20065;-72
2023/03/05 02:22:29;;;;;;;;;;;;;;;4.00;100.00;99941.84;4986606;28;20104;-70
2023/03/05 02:24:54;;;;;;;39.03;20.90;;;;;;;3.19;100.00;99827.84;4984237;28;20394;-72
2023/03/05 02:27:33;;;;;;;50.30;22.73;;;;;;;3.62;100.00;99930.69;4982957;28;20034;-71
2023/03/05 02:29:59;;;;;;;69.15;25.05;;;;;;;3.33;100.00;99911.94;4984124;28;20046;-71
2023/03/05 02:32:25;;;;;;;48.72;25.02;;;;;;;3.56;100.00;99930.59;4983139;28;20077;-71
2023/03/05 02:34:50;;;;;;;53.78;25.83;;;;;;;2.85;100.00;99783.94;4986816;28;20558;-73
2023/03/05 02:37:16;;;;;;;47.65;22.85;;;;;;;3.53;100.00;99897.66;4982333;28;20457;-72
2023/03/05 02:39:41;;;;;;;52.55;22.02;;;;;;;2.94;100.00;99803.97;4983702;28;20026;-73
2023/03/05 02:42:07;;;;;;;42.25;23.75;;;;;;;2.66;100.00;99802.53;4982993;28;20033;-73
2023/03/05 02:44:33;;;;;;;45.05;24.75;;;;;;;3.35;100.00;99908.53;4982369;28;20088;-71
2023/03/05 02:46:58;;;;;;;34.92;20.77;;;;;;;2.87;100.00;99821.13;4981417;28;20561;-71
2023/03/05 02:49:24;;;;;;;53.90;24.63;;;;;;;2.77;100.00;99816.59;4983010;28;20402;-73
2023/03/05 02:51:50;;;;;;;41.35;20.80;;;;;;;3.48;100.00;99942.50;4985389;28;20069;-73
2023/03/05 02:54:15;;;;;;;49.55;22.40;;;;;;;3.43;100.00;99951.91;4978758;28;20747;-73
2023/03/05 02:56:42;;;;;;;46.38;23.33;;;;;;;2.74;100.00;99808.75;4981168;28;20477;-73
2023/03/05 02:59:08;;;;;;;47.55;25.02;;;;;;;3.56;100.00;99947.00;4985049;28;20050;-73
2023/03/05 03:01:33;;;;;;;57.67;25.80;;;;;;;3.39;100.00;99935.41;4985632;28;20043;-73
2023/03/05 03:03:59;;;;;;;49.40;25.15;;;;;;;3.29;100.00;99912.72;4987872;28;20520;-73
2023/03/05 03:06:24;;;;;;;56.05;22.58;;;;;;;2.76;100.00;99807.06;4977490;28;20038;-71
2023/03/05 03:08:50;;;;;;;52.85;24.90;;;;;;;3.44;100.00;99939.00;4979780;28;20086;-71
2023/03/05 03:11:16;;;;;;;51.78;24.92;;;;;;;2.58;100.00;99794.59;4982834;28;20077;-72
2023/03/05 03:13:42;;;;;;;55.17;22.98;;;;;;;3.32;100.00;99928.34;4991611;28;20084;-73
2023/03/05 03:16:13;;;;;;;40.80;23.02;;;;;;;3.35;100.00;99944.84;4983595;28;20077;-76
2023/03/05 03:18:39;;;;;;;51.63;22.83;;;;;;;2.61;100.00;99814.50;4979363;28;20038;-77
2023/03/05 03:21:05;;;;;;;49.28;25.88;;;;;;;2.70;100.00;99857.03;4983281;28;20073;-74
2023/03/05 03:23:32;;;;;;;45.17;25.70;;;;;;;3.10;100.00;99921.81;4984477;28;20054;-71
2023/03/05 03:25:58;;;;;;;44.28;24.27;;;;;;;3.07;100.00;99922.63;4976079;28;20082;-71
2023/03/05 03:28:23;;;;;;;49.33;26.10;;;;;;;2.19;100.00;99764.38;4984040;28;20100;-71
2023/03/05 03:30:49;;;;;;;55.35;22.27;;;;;;;3.14;100.00;99903.78;4979449;28;20030;-75
2023/03/05 03:33:16;;;;;;;47.05;24.63;;;;;;;2.48;100.00;99777.97;4988247;28;20064;-74
2023/03/05 03:35:45;;;;;;;41.60;21.52;;;;;;;2.19;100.00;99743.66;4985908;28;20081;-73
2023/03/05 03:38:12;;;;;;;39.55;22.65;;;;;;;3.21;100.00;99901.28;4971971;28;20101;-73
2023/03/05 03:40:39;;;;;;;42.33;24.10;;;;;;;2.89;100.00;99844.47;4985932;28;20054;-74
2023/03/05 03:43:05;;;;;;;40.58;22.30;;;;;;;2.90;100.00;99847.13;4989001;28;20050;-74
2023/03/05 03:45:30;;;;;;;57.70;25.30;;;;;;;2.95;100.00;99878.31;4984427;28;20038;-73
2023/03/05 03:47:56;;;;;;;42.00;24.90;;;;;;;2.98;100.00;99883.53;4979321;28;20385;-72
2023/03/05 03:50:23;;;;;;;47.55;23.42;;;;;;;3.08;100.00;99911.41;4975709;28;20146;-72
2023/03/05 03:52:49;;;;;;;51.13;28.20;;;;;;;2.96;100.00;99911.13;4974580;28;20062;-72
2023/03/05 03:55:15;;;;;;;55.28;26.90;;;;;;;2.20;100.00;99757.47;4983503;28;20046;-72
2023/03/05 03:57:42;;;;;;;46.00;25.45;;;;;;;3.14;100.00;99905.50;4979869;28;20045;-74
2023/03/05 04:00:09;;;;;;;66.00;25.38;;;;;;;2.01;100.00;99754.44;4983052;28;20038;-72
2023/03/05 04:02:35;;;;;;;57.58;27.48;;;;;;;2.83;100.00;99878.88;4979608;28;20540;-71
2023/03/05 04:05:00;;;;;;;40.30;23.92;;;;;;;2.67;100.00;99871.59;4977782;28;20046;-72
2023/03/05 04:07:26;;;;;;;46.97;24.23;;;;;;;2.58;100.00;99806.69;4977087;28;20082;-72
2023/03/05 04:09:51;;;;;;;49.13;26.38;;;;;;;3.09;100.00;99892.44;4986305;28;20467;-71
2023/03/05 04:12:17;;;;;;;56.33;24.80;;;;;;;2.94;100.00;99872.22;4991311;28;20045;-73
2023/03/05 04:14:49;;;;;;;47.42;25.17;;;;;;;1.62;100.00;99649.22;4978950;28;20050;-71
2023/03/05 04:17:14;;;;;;;50.58;25.65;;;;;;;2.87;100.00;99903.16;4984038;28;20154;-73
2023/03/05 04:19:41;;;;;;;52.35;26.52;;;;;;;2.94;100.00;99899.88;4982840;28;20140;-71
2023/03/05 04:22:10;;;;;;;48.80;23.08;;;;;;;2.06;100.00;99744.22;4981804;28;20042;-71
2023/03/05 04:24:37;;;;;;;52.55;25.77;;;;;;;2.53;100.00;99869.59;4984242;28;20104;-73
2023/03/05 04:27:03;;;;;;;49.92;24.17;;;;;;;2.15;100.00;99793.59;4978888;28;20129;-74
2023/03/05 04:29:28;;;;;;;48.30;27.73;;;;;;;2.78;100.00;99879.63;4979280;28;20141;-73
2023/03/05 04:31:54;;;;;;;59.40;25.63;;;;;;;2.63;100.00;99909.53;4983834;28;20038;-71
2023/03/05 04:34:19;;;;;;;47.00;24.33;;;;;;;2.79;100.00;99921.13;4981199;28;20051;-72
2023/03/05 04:36:45;;;;;;;51.20;24.02;;;;;;;2.78;100.00;99906.41;4985457;28;20131;-71
2023/03/05 04:39:10;;;;;;;54.60;27.30;;;;;;;2.59;100.00;99920.63;4982756;28;20042;-72
2023/03/05 04:41:36;;;;;;;65.32;29.73;;;;;;;2.49;100.00;99865.16;4983277;28;20050;-72
2023/03/05 04:44:01;;;;;;;52.85;24.80;;;;;;;2.05;100.00;99795.09;4984313;28;20081;-73
2023/03/05 04:46:27;;;;;;;70.35;28.45;;;;;;;1.98;100.00;99790.59;4989689;28;20606;-72
2023/03/05 04:48:54;;;;;;;54.35;25.40;;;;;;;2.63;100.00;99917.28;4983332;28;20046;-72
2023/03/05 04:51:19;;;;;;;52.97;24.95;;;;;;;2.44;100.00;99874.56;4984296;28;20046;-70
2023/03/05 04:53:45;;;;;;;49.53;23.60;;;;;;;2.59;100.00;99889.56;5002122;28;20068;-71
2023/03/05 04:56:10;;;;;;;57.72;25.70;;;;;;;2.14;100.00;99877.25;4986936;28;20038;-70
2023/03/05 04:58:36;;;;;;;57.25;23.65;;;;;;;2.41;100.00;99882.25;4995639;28;20061;-72
2023/03/05 05:01:03;;;;;;;49.03;25.60;;;;;;;2.59;100.00;99901.63;4981346;28;20050;-71
2023/03/05 05:03:29;;;;;;;59.35;26.23;;;;;;;2.64;100.00;99906.09;4984073;28;20096;-74
2023/03/05 05:05:56;;;;;;;44.40;24.92;;;;;;;1.82;100.00;99753.13;4980043;28;20054;-73
2023/03/05 05:08:22;;;;;;;72.85;29.67;;;;;;;2.65;100.00;99897.50;5015989;28;20085;-72
2023/03/05 05:11:05;;;;;;;53.85;25.08;;;;;;;2.53;100.00;99892.03;4984245;28;20097;-74
2023/03/05 05:13:32;;;;;;;47.10;25.27;;;;;;;2.82;100.00;99939.31;4988579;28;20104;-73
2023/03/05 05:15:57;;;;;;;58.58;29.30;;;;;;;2.10;100.00;99823.66;4982675;28;20050;-73
2023/03/05 05:18:23;;;;;;;77.22;30.02;;;;;;;2.65;100.00;99919.94;4989406;28;20461;-71
2023/03/05 05:20:49;;;;;;;50.60;26.25;;;;;;;2.56;100.00;99954.25;4977782;28;20074;-72
2023/03/05 05:23:15;;;;;;;48.17;23.27;;;;;;;1.41;100.00;99852.91;4988728;28;20546;-72
2023/03/05 05:25:42;;;;;;;50.35;24.67;;;;;;;1.55;100.00;99809.34;4979647;28;20045;-75
2023/03/05 05:28:09;;;;;;;59.55;28.20;;;;;;;1.41;100.00;99835.69;5014085;28;20387;-71
2023/03/05 05:30:35;;;;;;;60.90;26.38;;;;;;;1.59;100.00;99847.34;4977115;28;20058;-73
2023/03/05 05:33:00;;;;;;;55.65;26.52;;;;;;;1.29;100.00;99819.88;4984340;28;20054;-72
2023/03/05 05:35:26;;;;;;;49.78;26.38;;;;;;;1.47;100.00;99850.47;4981383;28;21268;-72
2023/03/05 05:37:51;;;;;;;59.20;32.33;;;;;;;1.37;100.00;99805.41;4982149;28;20043;-72
2023/03/05 05:40:17;;;;;;;64.50;27.73;;;;;;;1.88;100.00;99825.72;4979848;28;20117;-72
2023/03/05 05:42:43;;;;;;;64.32;28.48;;;;;;;2.54;100.00;99949.00;4966043;28;20456;-72
2023/03/05 05:45:09;;;;;;;70.88;29.52;;;;;;;2.25;100.00;99924.13;4985565;28;20038;-75
2023/03/05 05:47:35;;;;;;;58.50;28.60;;;;;;;1.31;100.00;99782.00;4982356;28;20566;-72
2023/03/05 05:50:01;;;;;;;47.40;28.08;;;;;;;1.57;100.00;99831.81;4984615;28;20050;-72
2023/03/05 05:52:26;;;;;;;57.53;27.00;;;;;;;1.89;100.00;99943.00;5004932;28;20038;-72
2023/03/05 05:54:52;;;;;;;59.40;29.02;;;;;;;1.46;100.00;99838.41;4989560;28;20038;-74
2023/03/05 05:57:17;;;;;;;65.60;30.17;;;;;;;1.80;100.00;99884.16;4980732;28;20345;-72
2023/03/05 05:59:43;;;;;;;50.33;27.70;;;;;;;1.12;100.00;99810.75;4977843;28;20038;-72
2023/03/05 06:02:09;;;;;;;61.50;31.52;;;;;;;1.20;100.00;99824.78;4986483;28;20124;-71
2023/03/05 06:04:35;;;;;;;62.58;29.10;;;;;;;1.89;100.00;99920.59;4981012;28;20062;-71
2023/03/05 06:07:02;;;;;;;52.78;26.92;;;;;;;1.01;100.00;99813.03;4977276;28;20050;-71
2023/03/05 06:09:27;;;;;;;45.97;23.65;;;;;;;1.90;100.00;99934.44;4989935;28;20038;-71
2023/03/05 06:11:53;;;;;;;56.40;25.48;;;;;;;1.07;100.00;99813.19;4985573;28;20066;-71
2023/03/05 06:14:18;;;;;;;61.85;29.52;;;;;;;1.76;100.00;99912.50;4994317;28;20239;-72
2023/03/05 06:16:44;;;;;;;67.28;25.38;;;;;;;1.68;100.00;99866.56;4985647;28;20066;-72
2023/03/05 06:19:13;;;;;;;57.60;27.90;;;;;;;2.04;100.00;99925.31;4983892;28;20387;-73
2023/03/05 06:21:39;;;;;;;51.05;28.55;;;;;;;2.14;100.00;99928.16;4985674;28;20034;-74
2023/03/05 06:24:05;;;;;;;50.65;28.80;;;;;;;1.62;100.00;99831.94;4982032;28;20050;-73
2023/03/05 06:26:31;;;;;;;54.15;29.25;;;;;;;1.37;100.00;99794.22;4979904;28;20101;-73
2023/03/05 06:28:57;;;;;;;61.00;33.50;;;;;;;1.50;100.00;99792.81;4985214;28;20424;-72
2023/03/05 06:31:25;;;;;;;61.45;28.08;;;;;;;2.30;100.00;99884.56;4977386;28;20061;-72
2023/03/05 06:33:52;;;;;;;66.07;26.70;;;;;;;2.09;100.00;99821.94;4981539;28;20425;-71
2023/03/05 06:36:21;;;;;;;52.45;30.30;;;;;;;2.63;100.00;99940.59;4999594;28;20401;-72
2023/03/05 06:38:46;;;;;;;57.40;25.10;;;;;;;2.94;100.00;99981.06;4982881;28;20069;-71
2023/03/05 06:41:15;;;;;;;56.45;26.20;;;;;;;2.96;100.00;99950.00;4982986;28;20050;-71
2023/03/05 06:43:43;;;;;;;43.80;24.70;;;;;;;2.98;100.00;99983.75;4980095;28;20050;-70
2023/03/05 06:46:22;;;;;;;54.28;26.50;;;;;;;2.26;100.00;99849.09;4982889;28;20046;-70
2023/03/05 06:48:49;;;;;;;48.25;24.20;;;;;;;3.25;100.00;99997.31;5008698;28;20061;-71
2023/03/05 06:51:26;;;;;;;45.35;26.08;;;;;;;3.26;100.00;100030.19;4984596;28;20121;-71
2023/03/05 06:53:52;;;;;;;50.40;21.92;;;;;;;3.57;100.00;100030.88;4983348;28;20049;-71
2023/03/05 06:56:19;;;;;;;49.20;23.95;;;;;;;3.50;100.00;100024.69;4986030;28;20097;-71
2023/03/05 06:58:46;;;;;;;48.10;24.00;;;;;;;3.43;100.00;100042.69;4980855;28;20061;-73
2023/03/05 07:01:13;;;;;;;41.88;21.27;;;;;;;2.80;100.00;99907.31;4980795;28;20046;-72
2023/03/05 07:03:39;;;;;;;45.70;22.67;;;;;;;3.74;100.00;100076.22;4987635;28;20049;-73
2023/03/05 07:06:08;;;;;;;43.42;22.75;;;;;;;3.50;100.00;100022.09;4987531;28;20530;-72
2023/03/05 07:08:34;;;;;;;39.17;21.23;;;;;;;3.90;100.00;100067.06;4981835;28;20062;-73
2023/03/05 07:11:00;;;;;;;47.35;23.92;;;;;;;4.15;100.00;100094.41;4987188;28;20124;-72
2023/03/05 07:13:26;;;;;;;39.17;21.17;;;;;;;4.18;100.00;100099.66;4988192;28;20437;-75
2023/03/05 07:15:51;;;;;;;52.33;25.00;;;;;;;3.72;100.00;100032.94;4982239;28;20101;-72
2023/03/05 07:18:17;;;;;;;42.05;23.75;;;;;;;4.19;100.00;100127.41;4997495;28;20640;-72
2023/03/05 07:20:43;;;;;;;43.40;24.17;;;;;;;3.85;100.00;100037.53;4991077;28;20142;-72
2023/03/05 07:23:08;;;;;;;33.40;19.65;;;;;;;4.29;100.00;100125.88;4988664;28;20092;-72
2023/03/05 07:25:37;;;;;;;50.70;25.08;;;;;;;4.58;100.00;100183.59;4986053;28;20189;-74
2023/03/05 07:28:05;;;;;;;37.83;22.90;;;;;;;3.74;100.00;100046.81;4993684;28;20054;-74
2023/03/05 07:30:32;;;;;;;41.15;24.52;;;;;;;4.62;100.00;100176.75;4988517;28;20046;-74
2023/03/05 07:32:57;;;;;;;38.40;20.40;;;;;;;4.02;100.00;100056.94;4981481;28;20050;-73
2023/03/05 07:35:23;;;;;;;35.40;22.20;;;;;;;4.33;100.00;100080.03;4982903;28;20042;-73
2023/03/05 07:37:49;;;;;;;38.55;23.27;;;;;;;3.74;100.00;100052.00;4979288;28;20050;-73
2023/03/05 07:40:15;;;;;;;39.13;22.98;;;;;;;4.38;100.00;100156.38;4980716;28;20414;-73
2023/03/05 07:42:40;;;;;;;74.13;25.02;;;;;;;4.27;100.00;100073.03;4982662;28;20035;-73
2023/03/05 07:45:07;;;;;;;39.85;23.45;;;;;;;4.26;100.00;100078.16;4984797;28;20043;-72
2023/03/05 07:47:32;;;;;;;40.35;24.80;;;;;;;4.74;100.00;100184.78;4984736;28;20053;-72
2023/03/05 07:49:57;;;;;;;43.72;23.48;;;;;;;4.07;100.00;100121.94;4981128;28;20054;-72
2023/03/05 07:52:23;;;;;;;42.65;25.02;;;;;;;4.07;100.00;100072.59;4971799;28;20113;-72
2023/03/05 07:54:49;;;;;;;41.17;24.73;;;;;;;4.99;100.00;100170.56;4983640;28;20117;-72
2023/03/05 07:57:14;;;;;;;47.22;25.33;;;;;;;4.94;100.00;100193.00;4979674;28;20126;-73
2023/03/05 07:59:40;;;;;;;54.15;26.23;;;;;;;4.42;100.00;100114.00;4982500;28;20565;-72
2023/03/05 08:02:06;;;;;;;43.90;22.77;;;;;;;4.70;100.00;100136.19;4981488;28;20241;-72
2023/03/05 08:04:32;;;;;;;48.75;27.00;;;;;;;5.03;100.00;100192.28;4976622;28;20050;-73
2023/03/05 08:06:58;;;;;;;45.22;24.30;;;;;;;4.82;100.00;100171.94;4976650;28;20383;-72
2023/03/05 08:09:24;;;;;;;46.95;22.33;;;;;;;4.64;100.00;100188.94;4989049;28;20486;-72
2023/03/05 08:11:49;;;;;;;41.97;25.42;;;;;;;4.78;100.00;100163.22;4985471;28;20053;-72
2023/03/05 08:14:15;;;;;;;38.13;21.65;;;;;;;5.02;100.00;100201.81;4989650;28;20180;-74
2023/03/05 08:16:40;;;;;;;47.83;25.90;;;;;;;4.70;100.00;100172.56;4990386;28;20132;-72
2023/03/05 08:19:06;;;;;;;36.33;21.17;;;;;;;5.00;100.00;100187.03;4982321;28;20050;-72
2023/03/05 08:21:34;;;;;;;49.95;26.25;;;;;;;4.98;100.00;100183.50;4989475;28;20037;-72
2023/03/05 08:24:03;;;;;;;50.15;25.55;;;;;;;4.38;100.00;100058.53;4982133;28;20054;-71
2023/03/05 08:26:30;;;;;;;34.75;24.23;;;;;;;4.72;100.00;100152.69;5001189;28;20050;-71
2023/03/05 08:31:16;;;;;;;49.55;28.20;;;;;;;5.29;100.00;100178.03;5047416;27;20609;-73
2023/03/05 08:33:42;;;;;;;37.85;24.13;;;;;;;4.98;100.00;100082.97;5014620;28;20037;-71
2023/03/05 08:36:08;;;;;;;48.13;23.58;;;;;;;4.58;100.00;100052.81;5020752;28;20120;-72
2023/03/05 08:38:35;;;;;;;39.75;24.20;;;;;;;5.01;100.00;100074.34;5019366;28;20049;-72
2023/03/05 08:41:00;;;;;;;46.50;24.30;;;;;;;5.80;100.00;100170.16;5015384;28;20056;-71
2023/03/05 08:43:26;;;;;;;38.13;21.70;;;;;;;5.99;100.00;100159.19;5017937;28;20049;-68
2023/03/05 08:45:52;;;;;;;41.10;27.48;;;;;;;5.48;100.00;100058.66;5016190;28;20030;-74
2023/03/05 08:48:19;;;;;;;45.85;25.50;;;;;;;5.71;100.00;100070.28;5013436;28;20046;-72
2023/03/05 08:50:44;;;;;;;48.92;24.48;;;;;;;6.16;100.00;100187.22;5021438;28;20060;-72
2023/03/05 08:53:10;;;;;;;51.00;26.13;;;;;;;5.63;100.00;100071.88;5017248;28;20037;-72
2023/03/05 08:55:36;;;;;;;35.28;22.15;;;;;;;6.26;100.00;100174.34;5018854;28;20486;-71
2023/03/05 08:58:02;;;;;;;46.30;25.58;;;;;;;6.50;100.00;100165.09;5010573;28;20053;-71
2023/03/05 09:00:28;;;;;;;43.88;25.00;;;;;;;7.02;100.00;100165.69;5020758;28;20045;-74
2023/03/05 09:02:53;;;;;;;39.28;26.23;;;;;;;6.70;100.00;100063.66;5018378;28;20517;-72
2023/03/05 09:05:19;;;;;;;43.30;26.95;;;;;;;7.04;100.00;100168.31;5018005;28;20046;-73
2023/03/05 09:07:45;;;;;;;46.35;25.35;;;;;;;6.43;100.00;100049.47;5019586;28;20131;-72
2023/03/05 09:10:13;;;;;;;39.83;26.48;;;;;;;7.51;100.00;100144.38;5017826;28;20868;-71
2023/03/05 09:12:42;;;;;;;45.25;25.70;;;;;;;7.05;100.00;100048.34;5016628;28;20038;-72
2023/03/05 09:15:09;;;;;;;40.38;26.48;;;;;;;7.68;100.00;100145.41;5015897;28;20042;-74
2023/03/05 09:17:35;;;;;;;44.92;27.48;;;;;;;7.50;100.00;100153.09;5020030;28;20041;-70
2023/03/05 09:20:04;;;;;;;59.78;35.00;;;;;;;7.07;100.00;100164.03;5020201;28;20045;-70
2023/03/05 09:22:30;;;;;;;45.33;27.13;;;;;;;7.26;100.00;100067.63;5020475;28;20596;-70
2023/03/05 09:24:56;;;;;;;47.97;30.88;;;;;;;7.10;100.00;100032.72;5015941;28;20041;-71
2023/03/05 09:27:21;;;;;;;44.15;27.77;;;;;;;7.71;100.00;100149.78;5015696;28;20033;-71
2023/03/05 09:29:47;;;;;;;44.80;26.15;;;;;;;7.29;100.00;100106.81;5014245;28;20084;-69
2023/03/05 09:32:13;;;;;;;50.47;31.23;;;;;;;7.25;100.00;100147.66;5014598;28;20057;-70
2023/03/05 09:34:38;;;;;;;55.00;33.35;;;;;;;7.35;100.00;100138.16;5022706;28;20083;-70
2023/03/05 09:37:04;;;;;;;44.85;30.35;;;;;;;7.57;100.00;100120.94;5018462;28;20053;-70
2023/03/05 09:39:29;;;;;;;47.53;32.33;;;;;;;7.30;100.00;100040.69;5018025;28;20030;-71
2023/03/05 09:42:19;;;;;;;51.15;33.55;;;;;;;7.56;100.00;100143.59;5004622;28;20145;-70
2023/03/05 09:44:50;;;;;;;48.72;27.65;;;;;;;7.89;100.00;100128.13;4999947;28;20053;-71
2023/03/05 09:47:31;;;;;;;44.78;31.35;;;;;;;8.02;100.00;100137.78;5000434;28;20513;-71
2023/03/05 09:50:32;;;;;;;45.67;29.38;;;;;;;7.40;100.00;100032.09;4995869;28;20078;-71
2023/03/05 09:53:16;;;;;;;48.05;32.13;;;;;;;7.59;100.00;100002.59;4997660;28;20344;-71
2023/03/05 09:55:50;;;;;;;45.42;30.52;;;;;;;8.18;100.00;100029.84;5006231;28;20116;-71
2023/03/05 09:58:36;;;;;;;46.38;31.25;;;;;;;8.45;100.00;100123.22;5005574;28;20054;-72
2023/03/05 10:01:14;;;;;;;47.30;30.58;;;;;;;8.20;100.00;100037.72;5000960;28;20163;-70
2023/03/05 10:03:48;;;;;;;46.03;31.85;;;;;;;8.39;100.00;100094.41;5002102;28;20041;-72
2023/03/05 10:06:21;;;;;;;41.67;28.25;;;;;;;7.76;100.00;100048.81;5006021;28;20092;-71
2023/03/05 10:09:05;;;;;;;46.08;30.02;;;;;;;8.10;100.00;100101.25;5005831;28;20616;-71
2023/03/05 10:11:41;;;;;;;39.78;26.35;;;;;;;8.36;100.00;99995.06;5001905;28;20409;-70
2023/03/05 10:14:22;;;;;;;41.70;29.73;;;;;;;8.35;100.00;99959.31;4995550;28;20502;-72
2023/03/05 10:17:20;;;;;;;44.90;30.75;;;;;;;8.98;100.00;100090.22;5003068;28;20049;-70
2023/03/05 10:20:06;;;;;;;39.75;28.05;;;;;;;8.90;100.00;100078.00;5003338;28;20057;-71
2023/03/05 10:22:50;;;;;;;45.38;29.02;;;;;;;9.44;100.00;100078.91;5004044;28;20111;-72
2023/03/05 10:25:54;;;;;;;43.53;26.60;;;;;;;9.08;100.00;100073.69;5002824;28;20352;-72
2023/03/05 10:28:54;;;;;;;38.88;28.17;;;;;;;9.42;100.00;100063.19;4996746;28;20744;-71
2023/03/05 10:31:36;;;;;;;45.40;27.70;;;;;;;9.27;100.00;100061.47;5006624;28;20144;-70
2023/03/05 10:34:11;;;;;;;38.65;25.65;;;;;;;9.82;100.00;100062.25;5001719;28;20410;-73
2023/03/05 10:36:58;;;;;;;40.58;25.30;;;;;;;9.79;100.00;100046.53;5001913;28;20053;-70
2023/03/05 10:39:45;;;;;;;40.20;27.85;;;;;;;8.88;100.00;100037.00;5002015;28;20052;-70
2023/03/05 10:42:41;;;;;;;37.80;26.88;;;;;;;8.71;100.00;100043.97;5006416;28;20057;-70
2023/03/05 10:45:17;;;;;;;43.78;26.52;;;;;;;9.34;100.00;100027.41;5009746;28;20050;-73
2023/03/05 10:47:51;;;;;;;43.97;29.83;;;;;;;9.38;100.00;99916.56;5003330;28;20074;-72
2023/03/05 10:50:25;;;;;;;41.50;26.33;;;;;;;8.92;100.00;99899.22;4999783;28;20104;-70
2023/03/05 10:53:06;;;;;;;40.75;26.52;;;;;;;10.57;100.00;100010.34;5000277;28;20046;-73
2023/03/05 10:55:32;;;;;;;41.10;28.40;;;;;;;9.67;100.00;99989.81;4994566;28;20053;-69
2023/03/05 10:57:57;;;;;;;48.30;30.83;;;;;;;9.19;100.00;99926.19;5000206;28;20418;-73
2023/03/05 11:00:27;;;;;;;48.47;28.77;;;;;;;9.85;100.00;99989.72;4995040;28;20049;-73
2023/03/05 11:03:03;;;;;;;35.97;25.67;;;;;;;10.42;100.00;99976.38;4999997;28;20810;-77
2023/03/05 11:05:37;;;;;;;35.55;25.50;;;;;;;10.67;95.81;100008.53;5002332;28;20564;-74
2023/03/05 11:08:35;;;;;;;36.50;24.95;;;;;;;9.44;97.82;100009.06;5006273;28;20409;-72
2023/03/05 11:11:11;;;;;;;37.38;23.80;;;;;;;10.26;96.68;99890.78;5000335;28;20551;-74
2023/03/05 11:13:52;;;;;;;39.92;25.50;;;;;;;10.99;99.78;99971.53;4994935;28;20158;-73
2023/03/05 11:16:30;;;;;;;35.33;23.40;;;;;;;11.60;92.32;99962.16;4998927;28;20048;-74
2023/03/05 11:19:16;;;;;;;37.10;25.85;;;;;;;11.04;90.38;99978.50;5009564;28;20215;-72
2023/03/05 11:21:43;;;;;;;39.38;25.95;;;;;;;10.20;95.36;99975.56;5024927;28;20034;-73
2023/03/05 11:24:12;;;;;;;37.90;24.75;;;;;;;11.69;93.61;99963.81;5002740;28;20061;-72